createdAt,value
2019-03-24T00:00:44.650Z,97617.94
2019-03-24T00:03:13.247Z,97624.36
2019-03-24T00:05:43.203Z,97623.45
2019-03-24T00:08:11.855Z,97624.06
2019-03-24T00:10:40.501Z,97620.19
2019-03-24T00:13:09.106Z,97623.24
2019-03-24T00:15:39.061Z,97624.97
2019-03-24T00:18:07.770Z,97629.80
2019-03-24T00:20:37.357Z,97631.27
2019-03-24T00:23:06.132Z,97638.08
2019-03-24T00:25:34.706Z,97632.41
2019-03-24T00:28:03.383Z,97626.20
2019-03-24T00:30:32.126Z,97628.98
2019-03-24T00:33:00.629Z,97637.33
2019-03-24T00:35:29.291Z,97637.45
2019-03-24T00:37:58.003Z,97632.80
2019-03-24T00:40:26.645Z,97631.85
2019-03-24T00:42:55.321Z,97628.80
2019-03-24T00:45:23.969Z,97620.23
2019-03-24T00:47:52.533Z,97623.78
2019-03-24T00:50:22.748Z,97616.50
2019-03-24T00:52:51.461Z,97621.23
2019-03-24T00:55:20.103Z,97613.88
2019-03-24T00:57:49.156Z,97618.95
2019-03-24T01:00:19.847Z,97621.25
2019-03-24T01:02:48.494Z,97622.80
2019-03-24T01:05:17.428Z,97623.55
2019-03-24T01:07:45.996Z,97627.67
2019-03-24T01:10:14.703Z,97626.72
2019-03-24T01:12:43.388Z,97622.21
2019-03-24T01:15:12.039Z,97626.11
2019-03-24T01:17:40.677Z,97623.47
2019-03-24T01:20:10.377Z,97624.86
2019-03-24T01:22:38.825Z,97625.45
2019-03-24T01:25:07.785Z,97628.48
2019-03-24T01:27:36.549Z,97622.63
2019-03-24T01:30:07.465Z,97625.40
2019-03-24T01:32:36.108Z,97623.02
2019-03-24T01:35:06.215Z,97621.47
2019-03-24T01:37:34.866Z,97623.75
2019-03-24T01:40:04.366Z,97625.69
2019-03-24T01:42:32.935Z,97619.24
2019-03-24T01:45:01.444Z,97623.09
2019-03-24T01:47:30.212Z,97619.17
2019-03-24T01:49:58.926Z,97632.16
2019-03-24T01:52:27.421Z,97631.41
2019-03-24T01:54:56.118Z,97638.73
2019-03-24T01:57:24.826Z,97645.67
2019-03-24T01:59:53.402Z,97649.78
2019-03-24T02:02:22.099Z,97659.72
2019-03-24T02:04:50.983Z,97658.87
2019-03-24T02:07:19.633Z,97665.91
2019-03-24T02:09:48.728Z,97666.75
2019-03-24T02:12:17.390Z,97671.41
2019-03-24T02:14:46.038Z,97677.58
2019-03-24T02:17:15.727Z,97670.03
2019-03-24T02:19:44.299Z,97673.67
2019-03-24T02:22:12.992Z,97673.23
2019-03-24T02:24:41.638Z,97679.28
2019-03-24T02:27:10.234Z,97675.80
2019-03-24T02:29:38.914Z,97678.89
2019-03-24T02:32:07.614Z,97668.54
2019-03-24T02:34:36.260Z,97667.95
2019-03-24T02:37:04.942Z,97672.92
2019-03-24T02:39:33.583Z,97669.39
2019-03-24T02:42:02.080Z,97672.75
2019-03-24T02:44:32.784Z,97673.06
2019-03-24T02:47:04.704Z,97675.84
2019-03-24T02:49:33.356Z,97679.93
2019-03-24T02:52:03.428Z,97685.90
2019-03-24T02:54:32.016Z,97679.56
2019-03-24T02:57:00.661Z,97679.88
2019-03-24T02:59:29.392Z,97676.87
2019-03-24T03:01:57.972Z,97677.28
2019-03-24T03:04:26.619Z,97682.98
2019-03-24T03:06:55.271Z,97687.34
2019-03-24T03:09:23.916Z,97683.45
2019-03-24T03:11:52.523Z,97695.48
2019-03-24T03:14:21.111Z,97698.02
2019-03-24T03:16:49.825Z,97702.52
2019-03-24T03:19:18.530Z,97703.54
2019-03-24T03:21:47.177Z,97702.58
2019-03-24T03:24:15.822Z,97699.70
2019-03-24T03:26:44.573Z,97707.48
2019-03-24T03:29:13.219Z,97699.25
2019-03-24T03:31:41.861Z,97705.52
2019-03-24T03:34:10.623Z,97714.89
2019-03-24T03:36:39.274Z,97718.17
2019-03-24T03:39:09.761Z,97722.46
2019-03-24T03:41:38.371Z,97720.73
2019-03-24T03:44:07.006Z,97718.91
2019-03-24T03:46:35.644Z,97723.19
2019-03-24T03:49:04.329Z,97724.16
2019-03-24T03:51:32.981Z,97727.83
2019-03-24T03:54:01.555Z,97718.64
2019-03-24T03:56:30.231Z,97727.06
2019-03-24T03:58:58.801Z,97725.81
2019-03-24T04:01:27.513Z,97722.27
2019-03-24T04:03:56.257Z,97726.95
2019-03-24T04:06:24.755Z,97725.56
2019-03-24T04:08:53.267Z,97725.36
2019-03-24T04:11:21.955Z,97728.98
2019-03-24T04:13:50.598Z,97726.80
2019-03-24T04:16:19.118Z,97720.91
2019-03-24T04:18:47.803Z,97725.06
2019-03-24T04:21:16.453Z,97723.31
2019-03-24T04:23:45.444Z,97722.56
2019-03-24T04:26:13.981Z,97718.36
2019-03-24T04:28:42.553Z,97726.48
2019-03-24T04:31:11.190Z,97728.19
2019-03-24T04:33:41.099Z,97734.25
2019-03-24T04:36:10.483Z,97735.19
2019-03-24T04:38:39.333Z,97729.17
2019-03-24T04:41:07.971Z,97736.98
2019-03-24T04:43:36.548Z,97734.42
2019-03-24T04:46:05.191Z,97738.84
2019-03-24T04:48:33.959Z,97744.74
2019-03-24T04:51:02.454Z,97748.50
2019-03-24T04:53:31.103Z,97749.27
2019-03-24T04:55:59.797Z,97754.28
2019-03-24T04:58:28.450Z,97756.91
2019-03-24T05:00:57.837Z,97759.13
2019-03-24T05:03:27.990Z,97759.83
2019-03-24T05:05:58.922Z,97759.05
2019-03-24T05:08:27.566Z,97758.02
2019-03-24T05:10:57.350Z,97752.30
2019-03-24T05:13:26.054Z,97757.64
2019-03-24T05:15:54.701Z,97751.89
2019-03-24T05:18:23.393Z,97753.31
2019-03-24T05:20:52.111Z,97751.45
2019-03-24T05:23:20.879Z,97753.00
2019-03-24T05:25:49.565Z,97761.28
2019-03-24T05:28:18.073Z,97759.16
2019-03-24T05:30:46.722Z,97762.70
2019-03-24T05:33:16.424Z,97755.49
2019-03-24T05:35:46.976Z,97763.67
2019-03-24T05:38:15.546Z,97768.03
2019-03-24T05:40:44.230Z,97762.20
2019-03-24T05:43:13.232Z,97772.84
2019-03-24T05:45:41.887Z,97776.79
2019-03-24T05:48:11.932Z,97780.98
2019-03-24T05:50:40.594Z,97784.98
2019-03-24T05:53:09.466Z,97781.81
2019-03-24T05:55:38.110Z,97778.41
2019-03-24T05:58:06.760Z,97766.84
2019-03-24T06:00:35.407Z,97771.42
2019-03-24T06:03:04.094Z,97775.11
2019-03-24T06:05:32.766Z,97772.62
2019-03-24T06:08:01.486Z,97776.23
2019-03-24T06:10:30.137Z,97777.05
2019-03-24T06:12:58.796Z,97769.95
2019-03-24T06:15:27.493Z,97770.14
2019-03-24T06:17:56.157Z,97770.38
2019-03-24T06:20:24.786Z,97765.88
2019-03-24T06:22:53.667Z,97762.54
2019-03-24T06:25:22.331Z,97758.92
2019-03-24T06:27:51.103Z,97763.73
2019-03-24T06:30:19.763Z,97761.09
2019-03-24T06:32:48.483Z,97765.53
2019-03-24T06:35:17.152Z,97766.33
2019-03-24T06:37:45.771Z,97766.48
2019-03-24T06:40:14.552Z,97768.84
2019-03-24T06:42:43.263Z,97764.70
2019-03-24T06:45:12.193Z,97762.36
2019-03-24T06:47:40.952Z,97764.43
2019-03-24T06:50:10.077Z,97760.25
2019-03-24T06:52:38.846Z,97760.09
2019-03-24T06:55:07.544Z,97749.70
2019-03-24T06:57:37.664Z,97758.05
2019-03-24T07:00:09.171Z,97758.98
2019-03-24T07:02:37.895Z,97744.48
2019-03-24T07:05:07.705Z,97746.70
2019-03-24T07:07:36.289Z,97748.73
2019-03-24T07:10:10.048Z,97744.61
2019-03-24T07:12:38.748Z,97739.99
2019-03-24T07:15:08.304Z,97738.55
2019-03-24T07:17:37.741Z,97738.98
2019-03-24T07:20:07.327Z,97735.11
2019-03-24T07:22:36.071Z,97748.23
2019-03-24T07:25:05.576Z,97739.06
2019-03-24T07:27:35.942Z,97737.33
2019-03-24T07:30:09.796Z,97731.34
2019-03-24T07:32:38.453Z,97730.84
2019-03-24T07:35:13.818Z,97726.66
2019-03-24T07:37:42.554Z,97721.27
2019-03-24T07:40:16.073Z,97719.55
2019-03-24T07:42:44.866Z,97718.19
2019-03-24T07:45:13.933Z,97717.11
2019-03-24T07:47:42.592Z,97716.13
2019-03-24T07:50:11.697Z,97713.11
2019-03-24T07:52:40.341Z,97719.41
2019-03-24T07:55:09.772Z,97710.45
2019-03-24T07:57:38.929Z,97698.52
2019-03-24T08:00:09.690Z,97695.08
2019-03-24T08:02:38.382Z,97697.73
2019-03-24T08:05:07.787Z,97696.58
2019-03-24T08:07:36.563Z,97688.94
2019-03-24T08:10:07.021Z,97686.63
2019-03-24T08:12:35.796Z,97691.84
2019-03-24T08:15:05.105Z,97684.13
2019-03-24T08:17:33.750Z,97679.48
2019-03-24T08:20:03.638Z,97670.55
2019-03-24T08:22:32.339Z,97672.68
2019-03-24T08:25:00.964Z,97670.21
2019-03-24T08:27:29.924Z,97666.32
2019-03-24T08:29:58.579Z,97660.45
2019-03-24T08:32:27.252Z,97659.80
2019-03-24T08:34:57.415Z,97651.47
2019-03-24T08:37:25.930Z,97654.69
2019-03-24T08:39:54.647Z,97649.45
2019-03-24T08:42:23.356Z,97642.30
2019-03-24T08:44:52.009Z,97647.08
2019-03-24T08:47:20.696Z,97647.45
2019-03-24T08:49:49.660Z,97649.14
2019-03-24T08:52:18.397Z,97637.94
2019-03-24T08:54:46.977Z,97635.76
2019-03-24T08:57:18.516Z,97629.39
2019-03-24T08:59:47.324Z,97619.02
2019-03-24T09:02:16.051Z,97616.92
2019-03-24T09:04:44.794Z,97615.20
2019-03-24T09:07:13.382Z,97614.33
2019-03-24T09:09:42.150Z,97605.42
2019-03-24T09:12:11.187Z,97607.73
2019-03-24T09:14:39.705Z,97602.51
2019-03-24T09:17:09.894Z,97598.52
2019-03-24T09:19:38.454Z,97583.56
2019-03-24T09:22:09.909Z,97582.84
2019-03-24T09:24:38.854Z,97570.97
2019-03-24T09:27:07.510Z,97553.41
2019-03-24T09:29:36.098Z,97553.41
2019-03-24T09:32:04.726Z,97565.48
2019-03-24T09:34:34.525Z,97538.96
2019-03-24T09:37:04.382Z,97554.37
2019-03-24T09:39:33.195Z,97554.37
2019-03-24T09:42:03.214Z,97550.12
2019-03-24T09:44:33.436Z,97539.91
2019-03-24T09:47:02.206Z,97537.84
2019-03-24T09:49:30.879Z,97535.48
2019-03-24T09:52:06.640Z,97523.67
2019-03-24T09:54:35.376Z,97508.13
2019-03-24T09:57:05.066Z,97498.71
2019-03-24T09:59:33.709Z,97508.61
2019-03-24T10:02:04.131Z,97509.63
2019-03-24T10:04:32.842Z,97497.88
2019-03-24T10:07:01.433Z,97505.52
2019-03-24T10:09:30.339Z,97495.27
2019-03-24T10:12:01.385Z,97495.28
2019-03-24T10:14:30.039Z,97490.68
2019-03-24T10:16:58.690Z,97485.22
2019-03-24T10:19:27.333Z,97475.05
2019-03-24T10:21:55.989Z,97470.21
2019-03-24T10:24:29.685Z,97476.19
2019-03-24T10:27:00.132Z,97473.70
2019-03-24T10:29:28.769Z,97462.93
2019-03-24T10:31:57.450Z,97459.06
2019-03-24T10:34:26.372Z,97444.47
2019-03-24T10:36:55.081Z,97438.45
2019-03-24T10:39:23.636Z,97437.19
2019-03-24T10:41:52.321Z,97423.72
2019-03-24T10:44:21.070Z,97432.70
2019-03-24T10:46:49.826Z,97420.23
2019-03-24T10:49:24.857Z,97412.72
2019-03-24T10:51:48.812Z,97404.02
2019-03-24T10:54:17.793Z,97405.33
2019-03-24T10:56:46.540Z,97403.42
2019-03-24T10:59:15.197Z,97400.00
2019-03-24T11:01:43.778Z,97398.70
2019-03-24T11:04:12.444Z,97397.18
2019-03-24T11:06:41.093Z,97381.86
2019-03-24T11:09:09.778Z,97380.84
2019-03-24T11:11:38.425Z,97384.58
2019-03-24T11:14:07.088Z,97376.84
2019-03-24T11:16:35.848Z,97377.66
2019-03-24T11:19:04.549Z,97371.68
2019-03-24T11:21:33.237Z,97371.42
2019-03-24T11:24:01.814Z,97356.66
2019-03-24T11:26:30.377Z,97353.66
2019-03-24T11:28:59.109Z,97350.43
2019-03-24T11:31:27.855Z,97352.00
2019-03-24T11:33:56.430Z,97351.38
2019-03-24T11:36:26.498Z,97342.93
2019-03-24T11:38:55.189Z,97343.56
2019-03-24T11:41:24.794Z,97342.80
2019-03-24T11:43:53.801Z,97329.98
2019-03-24T11:46:22.413Z,97333.36
2019-03-24T11:48:53.100Z,97313.00
2019-03-24T11:51:21.806Z,97323.02
2019-03-24T11:53:50.442Z,97316.92
2019-03-24T11:56:19.174Z,97309.92
2019-03-24T11:58:47.863Z,97319.27
2019-03-24T12:01:16.657Z,97308.73
2019-03-24T12:03:45.294Z,97311.48
2019-03-24T12:06:15.054Z,97301.28
2019-03-24T12:08:43.882Z,97299.38
2019-03-24T12:11:12.599Z,97294.71
2019-03-24T12:13:42.405Z,97293.63
2019-03-24T12:16:11.123Z,97285.84
2019-03-24T12:18:39.710Z,97299.48
2019-03-24T12:21:08.472Z,97299.97
2019-03-24T12:23:37.308Z,97292.12
2019-03-24T12:26:07.516Z,97291.23
2019-03-24T12:28:36.461Z,97285.84
2019-03-24T12:31:05.040Z,97277.94
2019-03-24T12:33:33.701Z,97282.01
2019-03-24T12:36:02.384Z,97281.92
2019-03-24T12:38:31.039Z,97277.00
2019-03-24T12:40:59.676Z,97269.58
2019-03-24T12:43:28.318Z,97260.69
2019-03-24T12:45:58.604Z,97272.09
2019-03-24T12:48:27.375Z,97270.09
2019-03-24T12:50:56.047Z,97263.23
2019-03-24T12:53:24.750Z,97251.88
2019-03-24T12:55:54.920Z,97251.64
2019-03-24T12:58:23.673Z,97249.78
2019-03-24T13:00:52.343Z,97239.70
2019-03-24T13:03:21.114Z,97229.95
2019-03-24T13:05:49.809Z,97226.09
2019-03-24T13:08:18.743Z,97205.77
2019-03-24T13:10:47.787Z,97220.45
2019-03-24T13:13:16.503Z,97199.10
2019-03-24T13:15:45.778Z,97209.48
2019-03-24T13:18:14.419Z,97200.08
2019-03-24T13:20:43.303Z,97195.73
2019-03-24T13:23:12.017Z,97204.13
2019-03-24T13:25:40.654Z,97195.83
2019-03-24T13:28:09.281Z,97193.91
2019-03-24T13:30:37.930Z,97186.59
2019-03-24T13:33:06.600Z,97188.75
2019-03-24T13:35:35.296Z,97181.64
2019-03-24T13:38:03.862Z,97169.38
2019-03-24T13:40:32.594Z,97163.94
2019-03-24T13:43:01.339Z,97154.81
2019-03-24T13:45:30.082Z,97167.09
2019-03-24T13:48:00.214Z,97164.30
2019-03-24T13:50:31.630Z,97158.04
2019-03-24T13:52:59.226Z,97170.08
2019-03-24T13:55:27.879Z,97166.32
2019-03-24T13:57:56.632Z,97167.55
2019-03-24T14:00:25.304Z,97159.23
2019-03-24T14:02:54.034Z,97160.09
2019-03-24T14:05:22.791Z,97166.59
2019-03-24T14:07:51.481Z,97165.08
2019-03-24T14:10:20.097Z,97149.84
2019-03-24T14:12:48.866Z,97164.29
2019-03-24T14:15:17.662Z,97158.89
2019-03-24T14:17:46.315Z,97154.66
2019-03-24T14:20:15.011Z,97153.81
2019-03-24T14:22:43.664Z,97158.64
2019-03-24T14:25:13.286Z,97150.22
2019-03-24T14:27:41.967Z,97153.22
2019-03-24T14:30:11.433Z,97148.44
2019-03-24T14:32:40.211Z,97150.94
2019-03-24T14:35:09.320Z,97142.63
2019-03-24T14:37:37.968Z,97137.80
2019-03-24T14:40:07.116Z,97144.78
2019-03-24T14:42:35.817Z,97135.30
2019-03-24T14:45:07.121Z,97136.47
2019-03-24T14:47:35.823Z,97141.91
2019-03-24T14:50:06.063Z,97135.81
2019-03-24T14:52:34.766Z,97137.38
2019-03-24T14:55:03.898Z,97131.67
2019-03-24T14:57:32.575Z,97128.16
2019-03-24T15:00:01.213Z,97136.13
2019-03-24T15:02:29.860Z,97129.38
2019-03-24T15:05:05.036Z,97129.61
2019-03-24T15:07:33.679Z,97124.08
2019-03-24T15:10:02.326Z,97129.23
2019-03-24T15:12:31.000Z,97134.77
2019-03-24T15:14:59.841Z,97138.73
2019-03-24T15:17:30.029Z,97132.37
2019-03-24T15:20:01.563Z,97143.43
2019-03-24T15:22:30.206Z,97130.79
2019-03-24T15:25:04.392Z,97130.21
2019-03-24T15:27:33.037Z,97132.81
2019-03-24T15:30:01.616Z,97135.64
2019-03-24T15:32:30.449Z,97129.41
2019-03-24T15:34:59.089Z,97126.97
2019-03-24T15:37:27.660Z,97130.26
2019-03-24T15:39:57.599Z,97130.93
2019-03-24T15:42:27.787Z,97132.83
2019-03-24T15:44:56.688Z,97125.15
2019-03-24T15:47:25.394Z,97134.98
2019-03-24T15:49:53.971Z,97132.33
2019-03-24T15:52:22.624Z,97131.58
2019-03-24T15:54:51.522Z,97145.12
2019-03-24T15:57:20.241Z,97131.65
2019-03-24T15:59:50.428Z,97137.27
2019-03-24T16:02:19.367Z,97137.67
2019-03-24T16:04:48.018Z,97138.83
2019-03-24T16:07:16.681Z,97138.91
2019-03-24T16:09:45.365Z,97133.47
2019-03-24T16:12:14.011Z,97134.85
2019-03-24T16:14:42.689Z,97141.65
2019-03-24T16:17:12.131Z,97136.43
2019-03-24T16:19:40.862Z,97137.20
2019-03-24T16:22:09.507Z,97111.33
2019-03-24T16:24:38.203Z,97135.41
2019-03-24T16:27:06.840Z,97132.19
2019-03-24T16:29:35.497Z,97136.30
2019-03-24T16:32:04.255Z,97145.53
2019-03-24T16:34:32.895Z,97145.48
2019-03-24T16:37:01.467Z,97145.67
2019-03-24T16:39:30.014Z,97141.94
2019-03-24T16:41:58.660Z,97153.45
2019-03-24T16:44:27.802Z,97153.45
2019-03-24T16:46:56.483Z,97149.64
2019-03-24T16:49:25.221Z,97157.11
2019-03-24T16:51:53.875Z,97157.11
2019-03-24T16:54:24.842Z,97162.92
2019-03-24T16:56:53.461Z,97164.28
2019-03-24T16:59:22.675Z,97164.28
2019-03-24T17:01:51.326Z,97164.02
2019-03-24T17:04:20.206Z,97162.27
2019-03-24T17:06:48.878Z,97146.28
2019-03-24T17:09:17.467Z,97168.27
2019-03-24T17:11:46.127Z,97167.34
2019-03-24T17:14:14.761Z,97169.02
2019-03-24T17:16:43.483Z,97168.94
2019-03-24T17:19:12.396Z,97169.02
2019-03-24T17:21:49.519Z,97171.01
2019-03-24T17:24:11.524Z,97171.48
2019-03-24T17:26:40.253Z,97180.11
2019-03-24T17:29:08.985Z,97181.34
2019-03-24T17:31:37.632Z,97182.10
2019-03-24T17:34:06.358Z,97187.61
2019-03-24T17:36:35.053Z,97195.42
2019-03-24T17:39:05.141Z,97188.16
2019-03-24T17:41:33.796Z,97189.96
2019-03-24T17:44:03.455Z,97198.05
2019-03-24T17:46:32.332Z,97199.77
2019-03-24T17:49:02.444Z,97207.94
2019-03-24T17:51:31.165Z,97208.33
2019-03-24T17:53:59.816Z,97216.28
2019-03-24T17:56:28.471Z,97214.06
2019-03-24T17:58:57.203Z,97215.88
2019-03-24T18:01:26.214Z,97224.25
2019-03-24T18:03:55.255Z,97227.12
2019-03-24T18:06:23.847Z,97229.45
2019-03-24T18:08:52.419Z,97236.17
2019-03-24T18:11:23.381Z,97233.69
2019-03-24T18:13:57.245Z,97237.76
2019-03-24T18:16:25.900Z,97243.53
2019-03-24T18:18:56.111Z,97245.47
2019-03-24T18:21:24.860Z,97252.67
2019-03-24T18:23:53.825Z,97251.02
2019-03-24T18:26:22.561Z,97256.44
2019-03-24T18:28:51.117Z,97255.48
2019-03-24T18:31:19.809Z,97254.64
2019-03-24T18:33:48.320Z,97258.83
2019-03-24T18:36:17.033Z,97264.42
2019-03-24T18:38:45.831Z,97268.98
2019-03-24T18:41:14.441Z,97273.97
2019-03-24T18:43:45.388Z,97273.69
2019-03-24T18:46:18.580Z,97267.67
2019-03-24T18:48:47.240Z,97272.52
2019-03-24T18:51:15.888Z,97273.91
2019-03-24T18:53:44.469Z,97279.53
2019-03-24T18:56:13.161Z,97280.78
2019-03-24T18:58:41.804Z,97284.03
2019-03-24T19:01:10.394Z,97293.30
2019-03-24T19:03:39.195Z,97294.19
2019-03-24T19:06:08.899Z,97292.41
2019-03-24T19:08:37.555Z,97294.09
2019-03-24T19:11:06.255Z,97304.89
2019-03-24T19:13:34.950Z,97300.16
2019-03-24T19:16:05.586Z,97305.45
2019-03-24T19:18:34.329Z,97305.18
2019-03-24T19:21:03.945Z,97306.23
2019-03-24T19:23:34.012Z,97311.14
2019-03-24T19:26:02.846Z,97311.02
2019-03-24T19:28:32.783Z,97318.49
2019-03-24T19:31:01.384Z,97314.28
2019-03-24T19:33:29.996Z,97314.83
2019-03-24T19:35:58.842Z,97314.59
2019-03-24T19:38:28.097Z,97312.94
2019-03-24T19:40:56.669Z,97308.27
2019-03-24T19:43:25.320Z,97317.83
2019-03-24T19:45:56.855Z,97321.77
2019-03-24T19:48:25.542Z,97308.87
2019-03-24T19:50:54.146Z,97310.44
2019-03-24T19:53:22.856Z,97314.71
2019-03-24T19:55:51.475Z,97313.73
2019-03-24T19:58:19.982Z,97313.13
2019-03-24T20:00:49.915Z,97306.08
2019-03-24T20:03:19.832Z,97310.66
2019-03-24T20:05:48.400Z,97313.06
2019-03-24T20:08:17.057Z,97314.50
2019-03-24T20:10:45.742Z,97313.65
2019-03-24T20:13:15.288Z,97317.06
2019-03-24T20:15:45.504Z,97325.10
2019-03-24T20:18:16.249Z,97328.97
2019-03-24T20:20:46.142Z,97333.05
2019-03-24T20:23:14.889Z,97327.84
2019-03-24T20:25:43.674Z,97330.62
2019-03-24T20:28:12.391Z,97329.73
2019-03-24T20:30:42.850Z,97331.03
2019-03-24T20:33:11.600Z,97330.33
2019-03-24T20:35:41.716Z,97323.38
2019-03-24T20:38:10.373Z,97324.00
2019-03-24T20:40:38.974Z,97323.61
2019-03-24T20:43:07.535Z,97328.56
2019-03-24T20:45:36.220Z,97325.61
2019-03-24T20:48:04.874Z,97320.77
2019-03-24T20:50:33.522Z,97323.84
2019-03-24T20:53:08.706Z,97322.99
2019-03-24T20:55:34.443Z,97321.40
2019-03-24T20:58:03.247Z,97328.07
2019-03-24T21:00:36.710Z,97323.91
2019-03-24T21:03:07.272Z,97327.73
2019-03-24T21:05:37.985Z,97329.46
2019-03-24T21:08:07.019Z,97339.12
2019-03-24T21:10:35.682Z,97341.42
2019-03-24T21:13:04.721Z,97343.30
2019-03-24T21:15:33.500Z,97348.17
2019-03-24T21:18:01.953Z,97345.36
2019-03-24T21:20:30.672Z,97344.53
2019-03-24T21:22:59.391Z,97350.32
2019-03-24T21:25:27.952Z,97350.86
2019-03-24T21:27:56.412Z,97355.13
2019-03-24T21:30:36.385Z,97344.74
2019-03-24T21:33:05.541Z,97347.92
2019-03-24T21:35:34.113Z,97350.09
2019-03-24T21:38:02.869Z,97349.81
2019-03-24T21:40:31.587Z,97355.36
2019-03-24T21:43:01.389Z,97349.52
2019-03-24T21:45:30.091Z,97351.48
2019-03-24T21:47:58.736Z,97348.87
2019-03-24T21:50:27.393Z,97350.18
2019-03-24T21:52:56.122Z,97355.14
2019-03-24T21:55:24.773Z,97357.67
2019-03-24T21:57:57.742Z,97361.93
2019-03-24T22:00:32.581Z,97348.79
2019-03-24T22:03:01.145Z,97348.98
2019-03-24T22:05:29.796Z,97350.00
2019-03-24T22:08:00.166Z,97350.04
2019-03-24T22:10:28.820Z,97346.66
2019-03-24T22:12:57.397Z,97342.72
2019-03-24T22:15:26.245Z,97342.27
2019-03-24T22:17:54.889Z,97344.06
2019-03-24T22:20:23.531Z,97339.70
2019-03-24T22:22:52.217Z,97345.22
2019-03-24T22:25:20.860Z,97347.86
2019-03-24T22:27:49.500Z,97342.62
2019-03-24T22:30:18.194Z,97341.38
2019-03-24T22:32:46.831Z,97342.61
2019-03-24T22:35:15.706Z,97340.16
2019-03-24T22:37:44.388Z,97333.66
2019-03-24T22:40:14.707Z,97337.27
2019-03-24T22:42:43.354Z,97338.07
2019-03-24T22:45:12.141Z,97340.78
2019-03-24T22:47:40.876Z,97343.70
2019-03-24T22:50:09.920Z,97336.98
2019-03-24T22:52:38.612Z,97341.55
2019-03-24T22:55:08.240Z,97334.66
2019-03-24T22:57:36.882Z,97337.09
2019-03-24T23:00:11.784Z,97335.02
2019-03-24T23:02:40.515Z,97336.45
2019-03-24T23:05:10.851Z,97338.92
2019-03-24T23:07:40.143Z,97336.42
2019-03-24T23:10:08.771Z,97335.42
2019-03-24T23:12:37.492Z,97335.47
2019-03-24T23:15:07.524Z,97338.92
2019-03-24T23:17:36.175Z,97342.83
2019-03-24T23:20:06.431Z,97337.01
2019-03-24T23:22:35.117Z,97333.66
2019-03-24T23:25:05.128Z,97328.84
2019-03-24T23:27:33.767Z,97335.63
2019-03-24T23:30:02.409Z,97328.12
2019-03-24T23:32:31.047Z,97330.48
2019-03-24T23:34:59.968Z,97328.79
2019-03-24T23:37:28.609Z,97318.50
2019-03-24T23:39:57.220Z,97321.23
2019-03-24T23:42:25.800Z,97335.52
2019-03-24T23:44:59.507Z,97331.19
2019-03-24T23:47:28.192Z,97344.33
2019-03-24T23:49:56.772Z,97348.55
2019-03-24T23:52:25.413Z,97348.37
2019-03-24T23:54:55.709Z,97343.31
2019-03-24T23:57:24.349Z,97341.40
2019-03-24T23:59:52.995Z,97339.19
